Day Heights, Ohio
Current Conditions -  °F | °C
As of 12:53 PM on Tuesday 21 Oct 2014 (Local Time) from KLUK Reporting Station
Overcast Overcast  
Wind Chill: 54°   Ceiling: 4400
Heat Index: 54°   Visibility: 10mi
Dew Point: 40°   Wind: 13mph
Humidity: 59%   Direction: 340°NNW
Pressure: 30.05"   Gusts: NA
Location:  39.1679°N, 84.2276°W
Report Text: KLUK 211653Z 34011KT 10SM BKN044 OVC050 12/04 A3005 RMK AO2 SLP175 T01220044
Loading
Personal Weather Stations






























Interactive Weather Map
Tropical Storm Tracking
New forecast layout! Learn more

10-Day Weather Forecast

Advertisements
Track Severe Weather on mobile